Aérodrome :
LOGIN :

S'inscrire | Disclaimer

   EN    FR    IT 

 










Légende :    VFR   VFR Marginal   IFR   IFR Intensif   IFR Très Intensif
Visi : 
Plafond : 
>= 8 km
>= 3000ft
5 à 8 km
1000 à 3000 ft
1500m à 5 km
500 à 1000 ft
800 à 1500m
200 à 500 ft
< 800m
< 200 ft
Symboles :   Orages  Brouillard  Fortes neiges  Fortes précipitations  Vent > 20 kt
SIGMETs :   Divers  Orages  Givrage  Turbulence  Onde Orograph.  Cendres Volcan.







- Altitude de l'aérodrome : 1686 ft
- Code IATA : MUW


DAOV - Ghriss

DERNIER METAR :
  • 200600Z 27002KT 9999 FEW026 06/06 Q1012

METARs EXPIRÉS :
  • 200500Z 15004KT 9999 FEW026 07/06 Q1011
  • 200400Z 15005KT 9999 FEW026 SCT100 08/06 Q1011

TAF TAF DAOV
Valide du 20 à 06h jusqu'au 20 à 15h UTC


200500Z 2006/2015 VRB02KT 9999 FEW026
PROB30
TEMPO 2006/2008 4000 BR SCT010 BKN020
Pas de NOTAMs connus pour ce terrain.
1 SIGMET publié pour la FIR Alger (DAAA) :
 
Turbulence forte
DAAA SIGMET 3 VALID 200600/201000 DAMM
DAAA ALGER FIR SEV TURB FCST W OF LINE N3645 E00000 - N3500 E00000 TOP FL330/260 STNR WKN=



MET'MAP, la Météo Aéronautique d'un coup d'oeil ! - Copyright ORBIFLY Décembre 2007 - Disclaimer

ORBIFLY MET'MAP TEAM :

Programmation & Développement : Alexandra Zaïnal
Conception & Développement : Baudouin d'Aumeries
Co-Programmation & Développement : Marc-Olivier Méhu
Soutien technique & logistique : Manuel Goepfert

Contact : metmap@orbifly.com




SOURCES & CREDITS :

   NOAA